createdAt,value
2023-02-24T00:02:01.288Z,-2.14
2023-02-24T00:04:34.569Z,-2.15
2023-02-24T00:07:03.035Z,-2.17
2023-02-24T00:09:31.942Z,-2.18
2023-02-24T00:12:06.041Z,-2.20
2023-02-24T00:14:37.594Z,-2.21
2023-02-24T00:17:08.425Z,-2.23
2023-02-24T00:19:37.390Z,-2.23
2023-02-24T00:22:08.173Z,-2.26
2023-02-24T00:24:37.913Z,-2.26
2023-02-24T00:27:12.820Z,-2.26
2023-02-24T00:29:45.883Z,-2.26
2023-02-24T00:32:15.062Z,-2.27
2023-02-24T00:34:44.728Z,-2.28
2023-02-24T00:37:15.475Z,-2.28
2023-02-24T00:39:48.333Z,-2.28
2023-02-24T00:42:17.392Z,-2.28
2023-02-24T00:44:47.040Z,-2.28
2023-02-24T00:47:16.996Z,-2.28
2023-02-24T00:49:46.136Z,-2.29
2023-02-24T00:52:19.228Z,-2.29
2023-02-24T00:54:49.043Z,-2.30
2023-02-24T00:57:21.639Z,-2.30
2023-02-24T00:59:54.641Z,-2.29
2023-02-24T01:02:22.946Z,-2.28
2023-02-24T01:04:51.695Z,-2.29
2023-02-24T01:07:19.933Z,-2.29
2023-02-24T01:09:50.010Z,-2.30
2023-02-24T01:12:39.102Z,-2.30
2023-02-24T01:15:10.221Z,-2.30
2023-02-24T01:17:44.392Z,-2.29
2023-02-24T01:20:17.283Z,-2.30
2023-02-24T01:22:47.412Z,-2.30
2023-02-24T01:25:20.176Z,-2.30
2023-02-24T01:27:49.515Z,-2.30
2023-02-24T01:30:18.680Z,-2.29
2023-02-24T01:32:47.746Z,-2.29
2023-02-24T01:35:23.558Z,-2.29
2023-02-24T01:37:51.871Z,-2.28
2023-02-24T01:40:21.911Z,-2.27
2023-02-24T01:42:52.235Z,-2.26
2023-02-24T01:45:23.022Z,-2.25
2023-02-24T01:47:53.262Z,-2.25
2023-02-24T01:50:22.393Z,-2.24
2023-02-24T01:52:52.062Z,-2.24
2023-02-24T01:55:23.879Z,-2.24
2023-02-24T01:57:52.256Z,-2.25
2023-02-24T02:00:37.684Z,-2.25
2023-02-24T02:03:19.792Z,-2.24
2023-02-24T02:05:48.733Z,-2.22
2023-02-24T02:08:18.467Z,-2.21
2023-02-24T02:10:46.900Z,-2.22
2023-02-24T02:13:21.262Z,-2.21
2023-02-24T02:16:29.810Z,-2.21
2023-02-24T02:19:13.813Z,-2.19
2023-02-24T02:22:03.999Z,-2.18
2023-02-24T02:24:49.548Z,-2.17
2023-02-24T02:27:45.505Z,-2.16
2023-02-24T02:30:39.395Z,-2.15
2023-02-24T02:33:35.783Z,-2.14
2023-02-24T02:36:15.432Z,-2.13
2023-02-24T02:39:14.553Z,-2.13
2023-02-24T02:41:46.406Z,-2.11
2023-02-24T02:44:24.640Z,-2.08
2023-02-24T02:47:04.516Z,-2.07
2023-02-24T02:49:39.025Z,-2.03
2023-02-24T02:52:21.266Z,-2.00
2023-02-24T02:54:52.412Z,-1.97
2023-02-24T02:57:28.112Z,-1.95
2023-02-24T03:00:23.918Z,-1.93
2023-02-24T03:03:03.549Z,-1.89
2023-02-24T03:05:47.127Z,-1.88
2023-02-24T03:08:21.820Z,-1.86
2023-02-24T03:10:51.261Z,-1.84
2023-02-24T03:13:25.753Z,-1.83
2023-02-24T03:15:54.917Z,-1.82
2023-02-24T03:18:33.645Z,-1.82
2023-02-24T03:21:09.317Z,-1.81
2023-02-24T03:23:40.442Z,-1.80
2023-02-24T03:26:23.738Z,-1.76
2023-02-24T03:29:23.695Z,-1.73
2023-02-24T03:31:55.483Z,-1.71
2023-02-24T03:34:30.034Z,-1.68
2023-02-24T03:36:58.206Z,-1.67
2023-02-24T03:39:26.819Z,-1.66
2023-02-24T03:42:07.552Z,-1.65
2023-02-24T03:44:36.546Z,-1.66
2023-02-24T03:47:16.246Z,-1.65
2023-02-24T03:49:45.458Z,-1.65
2023-02-24T03:52:39.775Z,-1.63
2023-02-24T03:55:19.626Z,-1.62
2023-02-24T03:58:17.072Z,-1.62
2023-02-24T04:00:49.817Z,-1.61
2023-02-24T04:03:33.725Z,-1.61
2023-02-24T04:06:17.443Z,-1.60
2023-02-24T04:09:10.518Z,-1.58
2023-02-24T04:11:47.713Z,-1.57
2023-02-24T04:14:51.225Z,-1.55
2023-02-24T04:17:41.621Z,-1.53
2023-02-24T04:20:16.464Z,-1.51
2023-02-24T04:22:51.811Z,-1.48
2023-02-24T04:25:24.854Z,-1.47
2023-02-24T04:27:54.669Z,-1.46
2023-02-24T04:30:23.264Z,-1.45
2023-02-24T04:32:51.740Z,-1.45
2023-02-24T04:35:23.870Z,-1.45
2023-02-24T04:37:52.567Z,-1.45
2023-02-24T04:40:24.008Z,-1.44
2023-02-24T04:42:53.366Z,-1.44
2023-02-24T04:45:31.103Z,-1.43
2023-02-24T04:48:03.260Z,-1.40
2023-02-24T04:50:34.053Z,-1.38
2023-02-24T04:53:16.066Z,-1.36
2023-02-24T04:55:50.653Z,-1.34
2023-02-24T04:58:20.889Z,-1.33
2023-02-24T05:00:53.051Z,-1.33
2023-02-24T05:03:30.206Z,-1.32
2023-02-24T05:06:00.468Z,-1.31
2023-02-24T05:08:30.245Z,-1.31
2023-02-24T05:11:00.921Z,-1.31
2023-02-24T05:13:31.902Z,-1.31
2023-02-24T05:16:06.156Z,-1.30
2023-02-24T05:18:37.390Z,-1.29
2023-02-24T05:21:29.362Z,-1.28
2023-02-24T05:23:59.510Z,-1.24
2023-02-24T05:26:43.810Z,-1.20
2023-02-24T05:29:15.216Z,-1.17
2023-02-24T05:31:44.631Z,-1.14
2023-02-24T05:34:17.414Z,-1.12
2023-02-24T05:36:46.639Z,-1.11
2023-02-24T05:39:19.390Z,-1.09
2023-02-24T05:41:49.078Z,-1.08
2023-02-24T05:44:23.069Z,-1.06
2023-02-24T05:46:56.833Z,-1.05
2023-02-24T05:49:28.708Z,-1.03
2023-02-24T05:51:58.028Z,-1.03
2023-02-24T05:54:31.427Z,-1.02
2023-02-24T05:57:04.323Z,-1.01
2023-02-24T05:59:33.148Z,-0.99
2023-02-24T06:02:09.579Z,-0.96
2023-02-24T06:04:39.714Z,-0.94
2023-02-24T06:07:19.434Z,-0.92
2023-02-24T06:09:58.004Z,-0.89
2023-02-24T06:12:32.043Z,-0.87
2023-02-24T06:15:07.874Z,-0.86
2023-02-24T06:17:39.498Z,-0.83
2023-02-24T06:20:14.107Z,-0.81
2023-02-24T06:22:43.127Z,-0.79
2023-02-24T06:25:12.157Z,-0.78
2023-02-24T06:27:43.285Z,-0.76
2023-02-24T06:30:12.538Z,-0.74
2023-02-24T06:32:45.027Z,-0.70
2023-02-24T06:35:13.383Z,-0.68
2023-02-24T06:37:42.034Z,-0.65
2023-02-24T06:40:20.335Z,-0.62
2023-02-24T06:42:49.949Z,-0.61
2023-02-24T06:45:18.729Z,-0.59
2023-02-24T06:47:48.994Z,-0.57
2023-02-24T06:50:21.950Z,-0.55
2023-02-24T06:52:53.279Z,-0.53
2023-02-24T06:55:27.765Z,-0.49
2023-02-24T06:57:58.745Z,-0.45
2023-02-24T07:00:37.393Z,-0.41
2023-02-24T07:03:16.250Z,-0.37
2023-02-24T07:05:54.459Z,-0.33
2023-02-24T07:08:25.226Z,-0.31
2023-02-24T07:10:56.098Z,-0.28
2023-02-24T07:13:26.102Z,-0.26
2023-02-24T07:16:07.380Z,-0.23
2023-02-24T07:18:37.087Z,-0.21
2023-02-24T07:21:06.330Z,-0.18
2023-02-24T07:23:34.975Z,-0.15
2023-02-24T07:26:10.378Z,-0.12
2023-02-24T07:28:40.335Z,-0.07
2023-02-24T07:31:20.140Z,-0.04
2023-02-24T07:33:48.903Z,-0.00
2023-02-24T07:36:23.277Z,0.03
2023-02-24T07:38:53.413Z,0.07
2023-02-24T07:41:23.182Z,0.09
2023-02-24T07:43:54.641Z,0.11
2023-02-24T07:46:28.186Z,0.14
2023-02-24T07:48:59.416Z,0.16
2023-02-24T07:51:29.883Z,0.20
2023-02-24T07:53:59.587Z,0.24
2023-02-24T07:56:28.624Z,0.28
2023-02-24T07:59:08.131Z,0.31
2023-02-24T08:01:40.069Z,0.33
2023-02-24T08:04:08.817Z,0.37
2023-02-24T08:06:39.967Z,0.40
2023-02-24T08:09:19.283Z,0.42
2023-02-24T08:11:52.577Z,0.45
2023-02-24T08:14:27.005Z,0.49
2023-02-24T08:16:59.684Z,0.52
2023-02-24T08:19:39.623Z,0.57
2023-02-24T08:22:21.031Z,0.60
2023-02-24T08:25:00.829Z,0.65
2023-02-24T08:27:30.567Z,0.70
2023-02-24T08:30:00.111Z,0.73
2023-02-24T08:32:43.789Z,0.75
2023-02-24T08:35:17.329Z,0.80
2023-02-24T08:37:53.879Z,0.82
2023-02-24T08:40:32.734Z,0.85
2023-02-24T08:43:41.923Z,0.86
2023-02-24T08:46:13.797Z,0.89
2023-02-24T08:48:46.556Z,0.92
2023-02-24T08:51:23.009Z,0.96
2023-02-24T08:53:53.708Z,0.98
2023-02-24T08:56:27.104Z,1.01
2023-02-24T08:59:05.790Z,1.03
2023-02-24T09:01:39.606Z,1.04
2023-02-24T09:04:12.634Z,1.06
2023-02-24T09:06:44.480Z,1.09
2023-02-24T09:09:18.211Z,1.12
2023-02-24T09:11:59.674Z,1.14
2023-02-24T09:14:36.685Z,1.17
2023-02-24T09:17:06.956Z,1.19
2023-02-24T09:19:48.082Z,1.21
2023-02-24T09:22:32.892Z,1.24
2023-02-24T09:25:40.838Z,1.26
2023-02-24T09:28:17.652Z,1.29
2023-02-24T09:30:54.544Z,1.32
2023-02-24T09:33:26.081Z,1.35
2023-02-24T09:36:11.000Z,1.36
2023-02-24T09:38:59.951Z,1.39
2023-02-24T09:41:54.135Z,1.42
2023-02-24T09:44:44.638Z,1.45
2023-02-24T09:47:31.429Z,1.48
2023-02-24T09:50:06.136Z,1.50
2023-02-24T09:52:42.500Z,1.53
2023-02-24T09:55:30.904Z,1.57
2023-02-24T09:58:18.985Z,1.60
2023-02-24T10:01:43.208Z,1.62
2023-02-24T10:04:21.350Z,1.64
2023-02-24T10:06:57.781Z,1.66
2023-02-24T10:09:50.637Z,1.67
2023-02-24T10:12:21.950Z,1.68
2023-02-24T10:15:47.966Z,1.67
2023-02-24T10:18:27.531Z,1.68
2023-02-24T10:21:01.061Z,1.69
2023-02-24T10:23:59.696Z,1.72
2023-02-24T10:26:59.622Z,1.73
2023-02-24T10:30:28.196Z,1.74
2023-02-24T10:32:59.152Z,1.78
2023-02-24T10:35:33.963Z,1.82
2023-02-24T10:38:06.319Z,1.86
2023-02-24T10:40:57.887Z,1.91
2023-02-24T10:43:34.869Z,1.93
2023-02-24T10:46:17.425Z,1.94
2023-02-24T10:49:00.704Z,1.94
2023-02-24T10:51:33.250Z,1.95
2023-02-24T10:54:31.374Z,1.96
2023-02-24T10:57:15.890Z,1.97
2023-02-24T11:00:18.482Z,1.97
2023-02-24T11:03:08.531Z,1.99
2023-02-24T11:06:03.772Z,2.03
2023-02-24T11:08:48.566Z,2.06
2023-02-24T11:11:25.869Z,2.10
2023-02-24T11:14:15.745Z,2.13
2023-02-24T11:17:14.566Z,2.16
2023-02-24T11:19:54.750Z,2.16
2023-02-24T11:22:25.538Z,2.17
2023-02-24T11:24:54.523Z,2.18
2023-02-24T11:27:25.295Z,2.19
2023-02-24T11:30:17.065Z,2.22
2023-02-24T11:32:51.442Z,2.24
2023-02-24T11:35:31.850Z,2.26
2023-02-24T11:38:19.788Z,2.27
2023-02-24T11:40:50.018Z,2.28
2023-02-24T11:43:20.795Z,2.27
2023-02-24T11:46:00.730Z,2.26
2023-02-24T11:48:34.549Z,2.27
2023-02-24T11:51:04.273Z,2.28
2023-02-24T11:53:47.817Z,2.31
2023-02-24T11:56:21.579Z,2.33
2023-02-24T11:59:08.561Z,2.33
2023-02-24T12:01:42.420Z,2.33
2023-02-24T12:04:12.868Z,2.33
2023-02-24T12:06:57.908Z,2.32
2023-02-24T12:09:32.911Z,2.31
2023-02-24T12:12:04.493Z,2.29
2023-02-24T12:14:35.663Z,2.27
2023-02-24T12:17:14.277Z,2.27
2023-02-24T12:20:06.220Z,2.30
2023-02-24T12:22:58.595Z,2.29
2023-02-24T12:25:35.088Z,2.31
2023-02-24T12:28:13.646Z,2.31
2023-02-24T12:30:49.295Z,2.32
2023-02-24T12:33:38.474Z,2.33
2023-02-24T12:36:34.086Z,2.33
2023-02-24T12:39:10.550Z,2.33
2023-02-24T12:42:03.920Z,2.35
2023-02-24T12:44:49.784Z,2.36
2023-02-24T12:47:34.214Z,2.36
2023-02-24T12:50:21.784Z,2.38
2023-02-24T12:53:12.053Z,2.41
2023-02-24T12:55:51.550Z,2.44
2023-02-24T12:58:28.768Z,2.44
2023-02-24T13:01:00.080Z,2.46
2023-02-24T13:03:40.395Z,2.49
2023-02-24T13:06:36.803Z,2.51
2023-02-24T13:09:23.772Z,2.52
2023-02-24T13:11:55.168Z,2.53
2023-02-24T13:14:35.670Z,2.54
2023-02-24T13:17:18.615Z,2.54
2023-02-24T13:19:47.303Z,2.55
2023-02-24T13:22:16.956Z,2.57
2023-02-24T13:24:54.369Z,2.60
2023-02-24T13:27:30.475Z,2.62
2023-02-24T13:30:26.319Z,2.63
2023-02-24T13:33:00.483Z,2.63
2023-02-24T13:35:30.857Z,2.63
2023-02-24T13:38:08.394Z,2.62
2023-02-24T13:40:37.048Z,2.63
2023-02-24T13:43:05.526Z,2.64
2023-02-24T13:45:35.058Z,2.65
2023-02-24T13:48:32.601Z,2.67
2023-02-24T13:51:20.022Z,2.68
2023-02-24T13:53:59.000Z,2.69
2023-02-24T13:56:39.692Z,2.70
2023-02-24T13:59:24.221Z,2.73
2023-02-24T14:02:02.763Z,2.76
2023-02-24T14:04:33.408Z,2.79
2023-02-24T14:07:09.349Z,2.80
2023-02-24T14:09:45.318Z,2.82
2023-02-24T14:12:19.686Z,2.84
2023-02-24T14:14:48.003Z,2.86
2023-02-24T14:17:31.476Z,2.89
2023-02-24T14:20:19.351Z,2.90
2023-02-24T14:22:50.403Z,2.92
2023-02-24T14:25:19.535Z,2.93
2023-02-24T14:27:50.280Z,2.94
2023-02-24T14:30:26.362Z,2.93
2023-02-24T14:32:54.924Z,2.93
2023-02-24T14:35:42.233Z,2.94
2023-02-24T14:38:39.316Z,2.96
2023-02-24T14:41:20.157Z,2.95
2023-02-24T14:43:49.494Z,2.96
2023-02-24T14:46:19.645Z,2.96
2023-02-24T14:48:55.010Z,2.97
2023-02-24T14:51:29.285Z,2.96
2023-02-24T14:53:59.637Z,2.96
2023-02-24T14:56:32.700Z,2.99
2023-02-24T14:59:03.737Z,3.05
2023-02-24T15:01:36.626Z,3.07
2023-02-24T15:04:13.709Z,3.08
2023-02-24T15:06:43.781Z,3.07
2023-02-24T15:09:18.811Z,3.05
2023-02-24T15:11:47.249Z,3.03
2023-02-24T15:14:22.865Z,3.01
2023-02-24T15:16:56.554Z,3.00
2023-02-24T15:19:32.816Z,3.01
2023-02-24T15:22:01.347Z,3.02
2023-02-24T15:24:33.254Z,3.02
2023-02-24T15:27:13.741Z,3.03
2023-02-24T15:29:42.811Z,3.04
2023-02-24T15:32:18.734Z,3.04
2023-02-24T15:34:48.160Z,3.03
2023-02-24T15:37:23.911Z,3.02
2023-02-24T15:39:55.165Z,3.04
2023-02-24T15:42:28.744Z,3.05
2023-02-24T15:44:59.541Z,3.06
2023-02-24T15:47:42.472Z,3.06
2023-02-24T15:50:12.779Z,3.12
2023-02-24T15:52:41.999Z,3.21
2023-02-24T15:55:11.377Z,3.32
2023-02-24T15:57:40.162Z,3.37
2023-02-24T16:00:13.301Z,3.41
2023-02-24T16:02:42.338Z,3.43
2023-02-24T16:05:13.725Z,3.42
2023-02-24T16:07:45.278Z,3.40
2023-02-24T16:10:18.820Z,3.38
2023-02-24T16:12:49.996Z,3.37
2023-02-24T16:15:21.306Z,3.35
2023-02-24T16:17:53.550Z,3.33
2023-02-24T16:20:31.705Z,3.31
2023-02-24T16:23:04.483Z,3.28
2023-02-24T16:25:40.313Z,3.24
2023-02-24T16:28:19.927Z,3.23
2023-02-24T16:30:49.647Z,3.21
2023-02-24T16:33:21.507Z,3.21
2023-02-24T16:35:50.897Z,3.21
2023-02-24T16:38:21.460Z,3.21
2023-02-24T16:40:49.805Z,3.21
2023-02-24T16:43:21.870Z,3.21
2023-02-24T16:45:51.491Z,3.20
2023-02-24T16:48:22.791Z,3.19
2023-02-24T16:50:51.092Z,3.18
2023-02-24T16:53:22.757Z,3.18
2023-02-24T16:55:51.071Z,3.19
2023-02-24T16:58:19.495Z,3.19
2023-02-24T17:00:49.070Z,3.19
2023-02-24T17:03:23.024Z,3.19
2023-02-24T17:05:51.985Z,3.19
2023-02-24T17:08:20.962Z,3.17
2023-02-24T17:10:49.585Z,3.15
2023-02-24T17:13:19.852Z,3.12
2023-02-24T17:15:49.963Z,3.12
2023-02-24T17:18:21.401Z,3.10
2023-02-24T17:20:50.354Z,3.08
2023-02-24T17:23:22.197Z,3.08
2023-02-24T17:25:53.729Z,3.06
2023-02-24T17:28:22.249Z,3.04
2023-02-24T17:30:50.720Z,3.02
2023-02-24T17:33:19.058Z,3.01
2023-02-24T17:35:47.820Z,2.99
2023-02-24T17:38:18.455Z,2.99
2023-02-24T17:40:48.966Z,2.99
2023-02-24T17:43:17.600Z,2.99
2023-02-24T17:45:46.960Z,2.99
2023-02-24T17:48:15.728Z,2.99
2023-02-24T17:50:44.756Z,2.99
2023-02-24T17:53:14.363Z,2.98
2023-02-24T17:56:01.064Z,2.98
2023-02-24T17:58:30.471Z,2.98
2023-02-24T18:00:59.050Z,2.99
2023-02-24T18:03:27.449Z,2.99
2023-02-24T18:06:04.732Z,3.00
2023-02-24T18:08:34.190Z,3.02
2023-02-24T18:11:03.211Z,3.03
2023-02-24T18:13:33.099Z,3.03
2023-02-24T18:16:01.719Z,3.03
2023-02-24T18:18:30.451Z,3.01
2023-02-24T18:21:02.878Z,3.02
2023-02-24T18:23:32.796Z,3.02
2023-02-24T18:26:02.782Z,3.02
2023-02-24T18:28:35.650Z,3.02
2023-02-24T18:31:13.198Z,3.01
2023-02-24T18:33:42.862Z,3.02
2023-02-24T18:36:11.380Z,3.02
2023-02-24T18:38:41.764Z,3.01
2023-02-24T18:41:12.637Z,3.02
2023-02-24T18:43:41.033Z,3.01
2023-02-24T18:46:12.254Z,3.01
2023-02-24T18:48:41.473Z,3.01
2023-02-24T18:51:11.165Z,3.01
2023-02-24T18:53:42.622Z,3.00
2023-02-24T18:56:16.988Z,3.02
2023-02-24T18:58:52.600Z,3.04
2023-02-24T19:01:34.344Z,3.05
2023-02-24T19:04:03.309Z,3.06
2023-02-24T19:06:33.226Z,3.07
2023-02-24T19:09:09.886Z,3.07
2023-02-24T19:11:38.851Z,3.09
2023-02-24T19:14:07.252Z,3.09
2023-02-24T19:16:36.534Z,3.10
2023-02-24T19:19:04.933Z,3.11
2023-02-24T19:21:33.606Z,3.11
2023-02-24T19:24:03.937Z,3.10
2023-02-24T19:26:32.821Z,3.12
2023-02-24T19:29:01.195Z,3.11
2023-02-24T19:31:31.084Z,3.11
2023-02-24T19:34:01.950Z,3.11
2023-02-24T19:36:31.382Z,3.12
2023-02-24T19:38:59.582Z,3.10
2023-02-24T19:41:28.351Z,3.10
2023-02-24T19:43:57.894Z,3.09
2023-02-24T19:46:27.272Z,3.09
2023-02-24T19:48:56.923Z,3.08
2023-02-24T19:51:26.101Z,3.06
2023-02-24T19:53:56.424Z,3.06
2023-02-24T19:56:27.240Z,3.07
2023-02-24T19:58:56.794Z,3.10
2023-02-24T20:01:25.706Z,3.09
2023-02-24T20:03:55.488Z,3.10
2023-02-24T20:06:32.156Z,3.09
2023-02-24T20:09:10.801Z,3.10
2023-02-24T20:11:39.716Z,3.12
2023-02-24T20:14:10.748Z,3.13
2023-02-24T20:16:40.989Z,3.14
2023-02-24T20:19:12.563Z,3.15
2023-02-24T20:21:42.040Z,3.15
2023-02-24T20:24:14.048Z,3.15
2023-02-24T20:26:46.334Z,3.16
2023-02-24T20:29:16.333Z,3.17
2023-02-24T20:31:46.795Z,3.17
2023-02-24T20:34:17.370Z,3.18
2023-02-24T20:36:45.663Z,3.18
2023-02-24T20:39:14.414Z,3.19
2023-02-24T20:41:42.753Z,3.21
2023-02-24T20:44:11.787Z,3.21
2023-02-24T20:46:40.074Z,3.21
2023-02-24T20:49:11.348Z,3.20
2023-02-24T20:51:39.585Z,3.21
2023-02-24T20:54:08.621Z,3.21
2023-02-24T20:56:38.508Z,3.22
2023-02-24T20:59:16.528Z,3.23
2023-02-24T21:01:47.537Z,3.24
2023-02-24T21:04:18.781Z,3.25
2023-02-24T21:06:48.273Z,3.25
2023-02-24T21:09:20.462Z,3.26
2023-02-24T21:11:48.828Z,3.27
2023-02-24T21:14:17.780Z,3.29
2023-02-24T21:16:50.398Z,3.31
2023-02-24T21:19:20.314Z,3.31
2023-02-24T21:21:48.541Z,3.32
2023-02-24T21:24:16.749Z,3.31
2023-02-24T21:26:46.231Z,3.33
2023-02-24T21:29:14.529Z,3.34
2023-02-24T21:31:42.882Z,3.34
2023-02-24T21:34:12.282Z,3.34
2023-02-24T21:36:41.866Z,3.34
2023-02-24T21:39:14.679Z,3.35
2023-02-24T21:41:43.345Z,3.34
2023-02-24T21:44:12.758Z,3.35
2023-02-24T21:46:43.898Z,3.35
2023-02-24T21:49:16.550Z,3.34
2023-02-24T21:51:48.644Z,3.34
2023-02-24T21:54:17.794Z,3.33
2023-02-24T21:56:46.087Z,3.34
2023-02-24T21:59:14.464Z,3.35
2023-02-24T22:01:43.482Z,3.35
2023-02-24T22:04:13.604Z,3.35
2023-02-24T22:06:42.384Z,3.35
2023-02-24T22:09:13.470Z,3.35
2023-02-24T22:11:42.284Z,3.36
2023-02-24T22:14:13.684Z,3.37
2023-02-24T22:16:42.442Z,3.37
2023-02-24T22:19:12.773Z,3.37
2023-02-24T22:21:42.731Z,3.36
2023-02-24T22:24:13.301Z,3.37
2023-02-24T22:26:42.037Z,3.38
2023-02-24T22:29:10.844Z,3.38
2023-02-24T22:31:39.728Z,3.38
2023-02-24T22:34:13.224Z,3.37
2023-02-24T22:36:41.507Z,3.37
2023-02-24T22:39:09.751Z,3.39
2023-02-24T22:41:38.366Z,3.41
2023-02-24T22:44:06.896Z,3.42
2023-02-24T22:46:37.274Z,3.42
2023-02-24T22:49:06.859Z,3.42
2023-02-24T22:51:35.429Z,3.42
2023-02-24T22:54:04.259Z,3.42
2023-02-24T22:56:33.254Z,3.41
2023-02-24T22:59:01.691Z,3.41
2023-02-24T23:01:32.019Z,3.41
2023-02-24T23:04:04.293Z,3.41
2023-02-24T23:06:33.347Z,3.43
2023-02-24T23:09:01.833Z,3.43
2023-02-24T23:11:34.895Z,3.41
2023-02-24T23:14:06.259Z,3.40
2023-02-24T23:16:35.320Z,3.41
2023-02-24T23:19:08.060Z,3.41
2023-02-24T23:21:40.142Z,3.41
2023-02-24T23:24:11.091Z,3.40
2023-02-24T23:26:42.725Z,3.40
2023-02-24T23:29:14.792Z,3.38
2023-02-24T23:31:43.686Z,3.39
2023-02-24T23:34:12.236Z,3.40
2023-02-24T23:36:43.764Z,3.39
2023-02-24T23:39:23.179Z,3.38
2023-02-24T23:41:56.889Z,3.37
2023-02-24T23:44:25.763Z,3.38
2023-02-24T23:46:54.189Z,3.37
2023-02-24T23:49:24.113Z,3.36
2023-02-24T23:51:53.534Z,3.36
2023-02-24T23:54:21.709Z,3.36
2023-02-24T23:56:51.405Z,3.36
2023-02-24T23:59:21.752Z,3.36
